Time;durP1;ratioP1;P1;durP2;ratioP2;P2;SDS_P1;SDS_P2;PMS_P1;PMS_P2;Temp;Humidity;BMP_temperature;BMP_pressure;BME280_temperature;BME280_humidity;BME280_pressure;Samples;Min_cycle;Max_cycle;Signal;HPM_P1;HPM_P2
2023/03/02 00:02:16;;;;;;;74.55;24.63;;;1.20;99.90;;;;;;4941070;29;20046;-71
2023/03/02 00:04:52;;;;;;;66.72;24.42;;;1.20;99.90;;;;;;4925879;29;20047;-70
2023/03/02 00:07:30;;;;;;;73.10;23.80;;;1.20;99.90;;;;;;4931356;29;20042;-71
2023/03/02 00:09:57;;;;;;;67.28;23.80;;;1.20;99.90;;;;;;4930543;29;20027;-70
2023/03/02 00:12:23;;;;;;;66.40;25.00;;;1.10;99.90;;;;;;4923244;29;20063;-73
2023/03/02 00:14:49;;;;;;;64.63;23.80;;;1.10;99.90;;;;;;4935851;29;20074;-72
2023/03/02 00:17:14;;;;;;;67.93;23.15;;;1.00;99.90;;;;;;4934587;29;20130;-72
2023/03/02 00:19:40;;;;;;;69.13;23.70;;;1.00;99.90;;;;;;4903757;29;20477;-70
2023/03/02 00:22:06;;;;;;;63.45;23.65;;;1.00;99.90;;;;;;4926734;29;20023;-71
2023/03/02 00:24:32;;;;;;;69.35;24.73;;;1.00;99.90;;;;;;4936302;29;20043;-71
2023/03/02 00:26:57;;;;;;;66.50;24.55;;;1.00;99.90;;;;;;4928564;29;20048;-72
2023/03/02 00:29:23;;;;;;;66.50;24.60;;;1.00;99.90;;;;;;4919941;29;20115;-71
2023/03/02 00:31:49;;;;;;;68.47;23.80;;;0.90;99.90;;;;;;4921524;29;20392;-71
2023/03/02 00:34:15;;;;;;;63.75;24.20;;;0.90;99.90;;;;;;4916755;29;20031;-71
2023/03/02 00:36:41;;;;;;;60.78;22.80;;;0.90;99.90;;;;;;4935011;29;20035;-70
2023/03/02 00:39:07;;;;;;;64.55;23.23;;;0.90;99.90;;;;;;4934461;29;20032;-71
2023/03/02 00:41:33;;;;;;;67.55;23.38;;;0.90;99.90;;;;;;4932954;29;20393;-71
2023/03/02 00:43:58;;;;;;;60.90;22.40;;;0.90;99.90;;;;;;4937038;29;20648;-70
2023/03/02 00:46:24;;;;;;;67.13;22.35;;;0.80;99.90;;;;;;4930868;29;20028;-71
2023/03/02 00:48:51;;;;;;;62.67;23.15;;;0.90;99.90;;;;;;4923294;29;20032;-71
2023/03/02 00:51:17;;;;;;;63.20;22.90;;;0.80;99.90;;;;;;4930227;29;20346;-70
2023/03/02 00:53:44;;;;;;;67.13;22.67;;;0.80;99.90;;;;;;4928805;29;20058;-73
2023/03/02 00:56:10;;;;;;;64.38;22.77;;;0.80;99.90;;;;;;4926189;29;20110;-71
2023/03/02 00:58:36;;;;;;;72.03;23.58;;;0.80;99.90;;;;;;4937230;29;20571;-72
2023/03/02 01:01:08;;;;;;;59.47;21.83;;;0.80;99.90;;;;;;4919130;29;20048;-70
2023/03/02 01:03:35;;;;;;;62.85;22.80;;;0.80;99.90;;;;;;4932637;29;20114;-71
2023/03/02 01:06:00;;;;;;;65.68;23.17;;;0.80;99.90;;;;;;4929854;29;20110;-74
2023/03/02 01:08:26;;;;;;;59.95;22.77;;;0.70;99.90;;;;;;4939821;29;20174;-71
2023/03/02 01:10:51;;;;;;;67.28;22.00;;;0.70;99.90;;;;;;4944233;29;20039;-71
2023/03/02 01:13:19;;;;;;;66.18;21.83;;;0.70;99.90;;;;;;4924579;29;20389;-70
2023/03/02 01:15:44;;;;;;;66.50;22.52;;;0.60;99.90;;;;;;4926059;29;20039;-72
2023/03/02 01:18:11;;;;;;;62.55;22.73;;;0.60;99.90;;;;;;4939444;29;20039;-71
2023/03/02 01:20:36;;;;;;;68.95;23.20;;;0.60;99.90;;;;;;4933048;29;20028;-70
2023/03/02 01:23:02;;;;;;;62.75;22.20;;;0.60;99.90;;;;;;4929321;29;20043;-74
2023/03/02 01:25:28;;;;;;;70.82;23.27;;;0.60;99.90;;;;;;4950978;29;20480;-71
2023/03/02 01:27:53;;;;;;;56.42;21.45;;;0.50;99.90;;;;;;4911403;29;20064;-71
2023/03/02 01:30:19;;;;;;;61.65;22.40;;;0.50;99.90;;;;;;4926526;29;20042;-71
2023/03/02 01:32:45;;;;;;;70.88;23.27;;;0.50;99.90;;;;;;4940202;29;21125;-70
2023/03/02 01:35:11;;;;;;;63.28;22.20;;;0.50;99.90;;;;;;4951833;29;20397;-71
2023/03/02 01:37:37;;;;;;;67.40;24.35;;;0.50;99.90;;;;;;4939170;29;20063;-70
2023/03/02 01:40:07;;;;;;;58.35;21.58;;;0.50;99.90;;;;;;4944003;29;20126;-71
2023/03/02 01:42:36;;;;;;;;;;;0.50;99.90;;;;;;4931086;29;20043;-70
2023/03/02 01:45:01;;;;;;;67.18;22.00;;;0.50;99.90;;;;;;4931739;29;19914;-70
2023/03/02 01:47:36;;;;;;;61.60;21.52;;;0.50;99.90;;;;;;4928920;29;20035;-70
2023/03/02 01:50:19;;;;;;;73.60;22.63;;;0.40;99.90;;;;;;4925661;29;20604;-70
2023/03/02 01:52:46;;;;;;;61.38;22.40;;;0.40;99.90;;;;;;4936358;29;20035;-70
2023/03/02 01:55:15;;;;;;;61.88;21.52;;;0.40;99.90;;;;;;4923621;29;20036;-70
2023/03/02 01:57:45;;;;;;;65.88;21.40;;;0.40;99.90;;;;;;4915204;29;20055;-76
2023/03/02 02:00:14;;;;;;;65.43;22.70;;;0.40;99.90;;;;;;4936750;29;20031;-71
2023/03/02 02:02:41;;;;;;;65.60;21.42;;;0.40;99.90;;;;;;4933291;29;20039;-70
2023/03/02 02:05:15;;;;;;;61.33;22.10;;;0.40;99.90;;;;;;4929338;29;20146;-71
2023/03/02 02:07:40;;;;;;;61.72;21.42;;;0.40;99.90;;;;;;4938677;29;20032;-72
2023/03/02 02:10:07;;;;;;;61.90;21.13;;;0.40;99.90;;;;;;4935569;28;20031;-71
2023/03/02 02:12:33;;;;;;;66.68;21.67;;;0.40;99.90;;;;;;4926386;29;20171;-72
2023/03/02 02:15:00;;;;;;;56.88;21.23;;;0.40;99.90;;;;;;4924038;29;20126;-70
2023/03/02 02:17:28;;;;;;;71.18;22.08;;;0.40;99.90;;;;;;4942520;29;20127;-72
2023/03/02 02:20:18;;;;;;;58.63;21.60;;;0.40;99.90;;;;;;4922380;29;20428;-70
2023/03/02 02:23:21;;;;;;;60.25;20.65;;;0.40;99.90;;;;;;4923458;29;20457;-76
2023/03/02 02:25:54;;;;;;;65.20;20.70;;;0.40;99.90;;;;;;4937796;29;20047;-75
2023/03/02 02:28:47;;;;;;;66.50;21.38;;;0.40;99.90;;;;;;4918566;29;20084;-71
2023/03/02 02:31:21;;;;;;;61.08;21.92;;;0.40;99.90;;;;;;4937869;29;20050;-70
2023/03/02 02:33:52;;;;;;;61.72;20.85;;;0.40;99.90;;;;;;4922315;29;20046;-75
2023/03/02 02:36:31;;;;;;;65.32;21.63;;;0.40;99.90;;;;;;4928837;29;20661;-70
2023/03/02 02:39:01;;;;;;;49.53;15.88;;;0.40;99.90;;;;;;4922140;29;20042;-70
2023/03/02 02:41:32;;;;;;;63.03;21.42;;;0.40;99.90;;;;;;4913037;29;20478;-71
2023/03/02 02:43:58;;;;;;;60.42;20.38;;;0.40;99.90;;;;;;4916668;29;20036;-70
2023/03/02 02:46:25;;;;;;;61.75;20.80;;;0.40;99.90;;;;;;4931526;29;20046;-70
2023/03/02 02:48:52;;;;;;;60.22;20.60;;;0.40;99.90;;;;;;4911771;29;20043;-73
2023/03/02 02:51:24;;;;;;;64.00;21.15;;;0.40;99.90;;;;;;4929961;29;20031;-71
2023/03/02 02:53:57;;;;;;;60.55;21.10;;;0.40;99.90;;;;;;4911241;29;20036;-70
2023/03/02 02:56:32;;;;;;;54.92;20.05;;;0.40;99.90;;;;;;4912672;29;20563;-71
2023/03/02 02:59:05;;;;;;;57.05;20.10;;;0.40;99.90;;;;;;4918483;29;20126;-71
2023/03/02 03:01:33;;;;;;;59.95;20.48;;;0.40;99.90;;;;;;4920882;29;20028;-70
2023/03/02 03:04:04;;;;;;;61.55;21.38;;;0.40;99.90;;;;;;4927204;29;20534;-71
2023/03/02 03:06:41;;;;;;;62.33;20.65;;;0.30;99.90;;;;;;4932567;29;20536;-72
2023/03/02 03:09:09;;;;;;;62.40;20.83;;;0.30;99.90;;;;;;4925439;29;20240;-70
2023/03/02 03:11:39;;;;;;;60.00;21.20;;;0.30;99.90;;;;;;4912740;29;20063;-73
2023/03/02 03:14:09;;;;;;;62.33;19.77;;;0.30;99.90;;;;;;4923732;29;20559;-73
2023/03/02 03:16:36;;;;;;;55.53;19.67;;;0.30;99.90;;;;;;4914323;29;20070;-71
2023/03/02 03:19:11;;;;;;;68.68;20.80;;;0.30;99.90;;;;;;4918678;29;20034;-70
2023/03/02 03:21:37;;;;;;;54.92;19.55;;;0.30;99.90;;;;;;4932432;29;20036;-71
2023/03/02 03:24:03;;;;;;;59.00;19.63;;;0.30;99.90;;;;;;4926974;29;20062;-71
2023/03/02 03:26:28;;;;;;;60.58;19.75;;;0.30;99.90;;;;;;4942111;29;20461;-71
2023/03/02 03:28:56;;;;;;;61.42;20.13;;;0.30;99.90;;;;;;4910862;29;20039;-71
2023/03/02 03:31:23;;;;;;;56.22;19.77;;;0.20;99.90;;;;;;4935194;29;20028;-70
2023/03/02 03:33:49;;;;;;;56.90;19.58;;;0.20;99.90;;;;;;4928472;29;20638;-75
2023/03/02 03:36:16;;;;;;;57.72;20.23;;;0.20;99.90;;;;;;4915529;29;20072;-73
2023/03/02 03:38:42;;;;;;;62.42;20.90;;;0.20;99.90;;;;;;4916889;29;20035;-70
2023/03/02 03:41:08;;;;;;;64.57;21.15;;;0.20;99.90;;;;;;4898205;29;20114;-71
2023/03/02 03:43:34;;;;;;;59.08;19.75;;;0.20;99.90;;;;;;4929762;29;20043;-70
2023/03/02 03:45:59;;;;;;;57.47;18.90;;;0.20;99.90;;;;;;4930076;29;20368;-71
2023/03/02 03:48:25;;;;;;;57.75;20.25;;;0.20;99.90;;;;;;4914933;29;20036;-76
2023/03/02 03:50:51;;;;;;;61.42;19.65;;;0.20;99.90;;;;;;4911830;29;20024;-75
2023/03/02 03:53:16;;;;;;;65.03;20.80;;;0.20;99.90;;;;;;4912172;29;20036;-71
2023/03/02 03:55:42;;;;;;;57.65;20.48;;;0.20;99.90;;;;;;4916153;29;20036;-70
2023/03/02 03:58:08;;;;;;;63.40;19.90;;;0.20;99.90;;;;;;4917565;29;20488;-71
2023/03/02 04:00:34;;;;;;;58.75;20.20;;;0.20;99.90;;;;;;4927768;29;20720;-70
2023/03/02 04:02:59;;;;;;;58.03;20.95;;;0.20;99.90;;;;;;4912311;29;20036;-71
2023/03/02 04:05:25;;;;;;;62.95;20.25;;;0.20;99.90;;;;;;4942621;29;20496;-71
2023/03/02 04:07:51;;;;;;;63.55;21.05;;;0.10;99.90;;;;;;4935369;29;20481;-75
2023/03/02 04:10:16;;;;;;;62.13;20.45;;;0.10;99.90;;;;;;4920504;29;20560;-75
2023/03/02 04:12:42;;;;;;;56.38;18.85;;;0.10;99.90;;;;;;4934013;29;20031;-70
2023/03/02 04:15:11;;;;;;;56.45;19.92;;;0.10;99.90;;;;;;4926718;29;20390;-72
2023/03/02 04:17:37;;;;;;;57.45;19.77;;;0.10;99.90;;;;;;4928188;29;20063;-70
2023/03/02 04:20:06;;;;;;;59.17;18.88;;;0.10;99.90;;;;;;4941139;29;20407;-72
2023/03/02 04:22:32;;;;;;;58.22;19.35;;;0.10;99.90;;;;;;4927940;29;20042;-70
2023/03/02 04:24:58;;;;;;;62.25;19.92;;;0.10;99.90;;;;;;4936718;29;20047;-71
2023/03/02 04:27:23;;;;;;;60.10;20.42;;;0.10;99.90;;;;;;4910978;29;20064;-70
2023/03/02 04:29:51;;;;;;;57.35;19.08;;;0.10;99.90;;;;;;4920337;29;20124;-74
2023/03/02 04:32:17;;;;;;;59.28;19.08;;;0.10;99.90;;;;;;4929258;29;20098;-70
2023/03/02 04:34:43;;;;;;;65.13;20.05;;;0.10;99.90;;;;;;4934515;29;20496;-71
2023/03/02 04:37:09;;;;;;;61.22;19.85;;;0.10;99.90;;;;;;4934613;29;20031;-70
2023/03/02 04:39:34;;;;;;;56.35;19.40;;;0.10;99.90;;;;;;4938208;29;20027;-71
2023/03/02 04:42:00;;;;;;;56.53;19.40;;;0.10;99.90;;;;;;4952120;29;20484;-71
2023/03/02 04:44:26;;;;;;;56.85;19.42;;;0.10;99.90;;;;;;4951933;29;20039;-71
2023/03/02 04:46:51;;;;;;;61.83;21.02;;;0.00;99.90;;;;;;4943593;29;20031;-75
2023/03/02 04:49:18;;;;;;;53.83;18.40;;;0.10;99.90;;;;;;4944620;29;20536;-70
2023/03/02 04:51:46;;;;;;;59.13;19.50;;;0.10;99.90;;;;;;4938126;29;20469;-71
2023/03/02 04:54:18;;;;;;;60.70;19.35;;;0.00;99.90;;;;;;4929609;29;20043;-72
2023/03/02 04:56:47;;;;;;;59.38;18.45;;;0.10;99.90;;;;;;4936414;29;20035;-72
2023/03/02 04:59:14;;;;;;;58.40;18.85;;;0.00;99.90;;;;;;4933094;29;20026;-71
2023/03/02 05:01:40;;;;;;;64.10;19.70;;;0.00;99.90;;;;;;4920425;29;20047;-72
2023/03/02 05:04:06;;;;;;;53.28;19.10;;;-0.10;99.90;;;;;;4933927;29;20071;-72
2023/03/02 05:06:32;;;;;;;59.55;19.85;;;-0.10;99.90;;;;;;4935700;29;20047;-71
2023/03/02 05:08:58;;;;;;;57.10;19.63;;;-0.10;99.90;;;;;;4899328;29;20035;-72
2023/03/02 05:11:25;;;;;;;69.97;21.55;;;-0.10;99.90;;;;;;4941816;29;20031;-71
2023/03/02 05:13:58;;;;;;;63.00;21.48;;;-0.10;99.90;;;;;;4945272;29;20074;-71
2023/03/02 05:16:27;;;;;;;67.15;21.90;;;-0.10;99.90;;;;;;4946905;29;20046;-72
2023/03/02 05:18:53;;;;;;;70.65;21.40;;;-0.10;99.90;;;;;;4952538;29;20046;-73
2023/03/02 05:21:22;;;;;;;61.60;20.60;;;-0.10;99.90;;;;;;4931191;29;20039;-72
2023/03/02 05:23:48;;;;;;;66.22;20.55;;;-0.10;99.90;;;;;;4929232;29;20062;-72
2023/03/02 05:26:15;;;;;;;63.05;20.85;;;-0.10;99.90;;;;;;4927454;29;20484;-72
2023/03/02 05:28:40;;;;;;;61.42;21.02;;;-0.10;99.90;;;;;;4939201;29;20126;-71
2023/03/02 05:31:07;;;;;;;67.38;20.95;;;-0.10;99.90;;;;;;4947426;29;20102;-73
2023/03/02 05:33:33;;;;;;;61.72;20.90;;;-0.10;99.90;;;;;;4935135;29;20078;-72
2023/03/02 05:35:59;;;;;;;58.30;20.77;;;-0.10;99.90;;;;;;4932647;29;20028;-72
2023/03/02 05:38:26;;;;;;;67.40;22.10;;;-0.10;99.90;;;;;;4935269;29;20069;-72
2023/03/02 05:40:52;;;;;;;63.28;21.27;;;-0.20;99.90;;;;;;4945906;29;20059;-72
2023/03/02 05:43:19;;;;;;;71.13;23.38;;;-0.20;99.90;;;;;;4927188;28;21059;-72
2023/03/02 05:45:46;;;;;;;64.30;22.05;;;-0.20;99.90;;;;;;4926740;29;20491;-72
2023/03/02 05:48:13;;;;;;;65.88;21.10;;;-0.20;99.90;;;;;;4938418;29;20058;-72
2023/03/02 05:50:39;;;;;;;61.70;20.85;;;-0.20;99.90;;;;;;4928852;29;20791;-72
2023/03/02 05:53:05;;;;;;;61.15;21.60;;;-0.20;99.90;;;;;;4927378;29;20527;-72
2023/03/02 05:55:35;;;;;;;56.35;20.27;;;-0.10;99.90;;;;;;4938058;29;20035;-72
2023/03/02 05:58:05;;;;;;;67.70;20.85;;;-0.20;99.90;;;;;;4931176;29;20054;-72
2023/03/02 06:00:31;;;;;;;62.42;20.23;;;-0.20;99.90;;;;;;4933457;29;20475;-72
2023/03/02 06:02:56;;;;;;;59.47;20.38;;;-0.20;99.90;;;;;;4940209;29;20055;-74
2023/03/02 06:05:23;;;;;;;53.38;20.08;;;-0.10;99.90;;;;;;4929679;29;20047;-73
2023/03/02 06:07:49;;;;;;;65.07;20.17;;;-0.20;99.90;;;;;;4931355;29;20047;-72
2023/03/02 06:10:15;;;;;;;70.15;22.23;;;-0.10;99.90;;;;;;4934074;29;20027;-72
2023/03/02 06:12:40;;;;;;;61.10;20.05;;;-0.20;99.90;;;;;;4933514;29;20125;-71
2023/03/02 06:15:07;;;;;;;59.15;20.48;;;-0.10;99.90;;;;;;4928994;29;20031;-72
2023/03/02 06:17:33;;;;;;;64.60;20.33;;;-0.10;99.90;;;;;;4926759;29;20477;-72
2023/03/02 06:19:58;;;;;;;59.53;20.13;;;-0.10;99.90;;;;;;4913876;29;20094;-75
2023/03/02 06:22:24;;;;;;;57.22;19.73;;;-0.10;99.90;;;;;;4941055;29;20046;-72
2023/03/02 06:24:50;;;;;;;56.85;18.67;;;-0.10;99.90;;;;;;4939237;29;20048;-71
2023/03/02 06:27:15;;;;;;;60.00;19.88;;;0.00;99.90;;;;;;4928285;29;20122;-72
2023/03/02 06:29:41;;;;;;;59.72;20.95;;;0.00;99.90;;;;;;4931082;29;20031;-73
2023/03/02 06:32:10;;;;;;;63.88;20.35;;;0.00;99.90;;;;;;4934939;29;20071;-73
2023/03/02 06:34:35;;;;;;;55.40;18.80;;;0.10;99.90;;;;;;4931151;29;20139;-72
2023/03/02 06:37:01;;;;;;;58.15;19.17;;;0.20;99.90;;;;;;4931346;29;20110;-73
2023/03/02 06:39:26;;;;;;;50.58;17.90;;;0.20;99.90;;;;;;4930118;29;20063;-72
2023/03/02 06:41:52;;;;;;;57.55;19.75;;;0.20;99.90;;;;;;4948014;29;20041;-73
2023/03/02 06:44:18;;;;;;;60.60;20.35;;;0.30;99.90;;;;;;4945789;29;20031;-71
2023/03/02 06:46:44;;;;;;;61.40;19.80;;;0.30;99.90;;;;;;4912747;29;20652;-72
2023/03/02 06:49:10;;;;;;;57.90;20.50;;;0.40;99.90;;;;;;4913166;29;20032;-73
2023/03/02 06:51:37;;;;;;;56.72;20.50;;;0.50;99.90;;;;;;4925719;29;20066;-72
2023/03/02 06:54:05;;;;;;;56.65;20.73;;;0.50;99.90;;;;;;4929696;29;20031;-72
2023/03/02 06:56:31;;;;;;;52.83;18.08;;;0.60;99.90;;;;;;4945073;29;20039;-73
2023/03/02 06:58:57;;;;;;;55.35;18.65;;;0.60;99.90;;;;;;4939179;29;20102;-73
2023/03/02 07:01:22;;;;;;;56.47;19.15;;;0.70;99.90;;;;;;4922909;29;20127;-72
2023/03/02 07:03:48;;;;;;;53.45;18.48;;;0.70;99.90;;;;;;4920989;29;20072;-72
2023/03/02 07:06:14;;;;;;;61.45;20.10;;;0.70;99.90;;;;;;4925537;29;20070;-72
2023/03/02 07:08:40;;;;;;;55.55;18.73;;;0.70;99.90;;;;;;4921467;29;20114;-72
2023/03/02 07:11:09;;;;;;;52.80;18.98;;;0.80;99.90;;;;;;4928972;29;20773;-72
2023/03/02 07:13:37;;;;;;;58.83;18.50;;;0.80;99.90;;;;;;4932535;29;20036;-73
2023/03/02 07:16:10;;;;;;;57.67;19.00;;;0.90;99.90;;;;;;4927834;29;20036;-74
2023/03/02 07:18:36;;;;;;;64.00;19.17;;;0.90;99.90;;;;;;4932916;29;20116;-73
2023/03/02 07:21:02;;;;;;;57.75;19.95;;;0.90;99.90;;;;;;4930677;29;20123;-74
2023/03/02 07:23:28;;;;;;;55.22;18.75;;;1.00;99.90;;;;;;4911094;29;20039;-72
2023/03/02 07:25:54;;;;;;;57.45;19.17;;;1.00;99.90;;;;;;4945999;29;20043;-70
2023/03/02 07:28:22;;;;;;;60.38;19.13;;;1.00;99.90;;;;;;4935373;29;20051;-71
2023/03/02 07:30:49;;;;;;;58.03;19.52;;;1.10;99.90;;;;;;4932135;29;20540;-71
2023/03/02 07:33:14;;;;;;;66.68;20.15;;;1.20;99.90;;;;;;4929491;29;20040;-71
2023/03/02 07:35:40;;;;;;;57.65;20.55;;;1.20;99.90;;;;;;4931183;29;20574;-69
2023/03/02 07:38:05;;;;;;;56.72;19.60;;;1.30;99.90;;;;;;4920683;29;20043;-71
2023/03/02 07:40:32;;;;;;;55.03;19.25;;;1.30;99.90;;;;;;4932281;29;20098;-69
2023/03/02 07:42:58;;;;;;;58.80;19.73;;;1.40;99.90;;;;;;4945689;29;20552;-70
2023/03/02 07:45:24;;;;;;;55.38;19.50;;;1.50;99.90;;;;;;4928935;29;20122;-71
2023/03/02 07:47:50;;;;;;;58.17;19.33;;;1.50;99.90;;;;;;4937486;29;20040;-70
2023/03/02 07:50:16;;;;;;;54.55;19.02;;;1.60;99.90;;;;;;4928946;29;20032;-71
2023/03/02 07:52:42;;;;;;;57.15;18.70;;;1.70;99.90;;;;;;4928666;29;20031;-72
2023/03/02 07:55:09;;;;;;;55.97;20.52;;;1.70;99.90;;;;;;4914488;29;20044;-71
2023/03/02 07:57:34;;;;;;;53.92;18.88;;;1.80;99.90;;;;;;4939168;29;20472;-71
2023/03/02 08:00:00;;;;;;;55.08;19.33;;;1.80;99.90;;;;;;4938455;29;20036;-72
2023/03/02 08:02:26;;;;;;;52.80;18.92;;;1.80;99.90;;;;;;4918090;29;20040;-69
2023/03/02 08:04:52;;;;;;;56.00;19.08;;;1.90;99.90;;;;;;4922715;29;20044;-70
2023/03/02 08:07:17;;;;;;;52.00;18.70;;;2.00;99.90;;;;;;4928265;29;20046;-69
2023/03/02 08:09:43;;;;;;;54.83;19.60;;;2.10;99.90;;;;;;4934654;29;20031;-69
2023/03/02 08:12:09;;;;;;;65.05;19.20;;;2.20;99.90;;;;;;4937495;29;20094;-69
2023/03/02 08:14:36;;;;;;;52.63;18.63;;;2.40;99.90;;;;;;4936663;29;20469;-71
2023/03/02 08:17:04;;;;;;;50.38;18.25;;;2.50;99.90;;;;;;4933937;29;20114;-74
2023/03/02 08:19:29;;;;;;;53.67;18.60;;;2.50;99.90;;;;;;4934399;29;20043;-68
2023/03/02 08:21:55;;;;;;;47.85;17.98;;;2.60;99.90;;;;;;4933929;29;20714;-71
2023/03/02 08:24:20;;;;;;;56.50;18.63;;;2.60;99.90;;;;;;4938457;29;20118;-72
2023/03/02 08:26:46;;;;;;;51.42;18.60;;;2.70;99.90;;;;;;4936154;29;20134;-70
2023/03/02 08:29:14;;;;;;;56.15;18.52;;;2.90;99.90;;;;;;4936160;29;20354;-70
2023/03/02 08:31:40;;;;;;;53.03;17.83;;;2.90;99.90;;;;;;4940793;29;20102;-69
2023/03/02 08:34:06;;;;;;;53.40;18.83;;;3.00;99.90;;;;;;4932139;29;20040;-74
2023/03/02 08:36:31;;;;;;;48.78;17.23;;;3.10;99.90;;;;;;4932247;29;20023;-69
2023/03/02 08:38:57;;;;;;;50.38;17.42;;;3.10;99.90;;;;;;4932269;29;20031;-68
2023/03/02 08:41:23;;;;;;;50.45;18.13;;;3.10;99.90;;;;;;4940806;29;20094;-71
2023/03/02 08:43:52;;;;;;;52.53;17.90;;;3.30;99.90;;;;;;4934011;29;20094;-71
2023/03/02 08:46:19;;;;;;;50.60;16.38;;;3.30;99.90;;;;;;4933357;29;20079;-70
2023/03/02 08:48:45;;;;;;;52.97;18.52;;;3.40;99.90;;;;;;4934233;29;20032;-71
2023/03/02 08:51:16;;;;;;;50.88;16.45;;;3.40;99.90;;;;;;4933210;29;20047;-71
2023/03/02 08:53:45;;;;;;;46.97;18.08;;;3.60;99.90;;;;;;4934264;29;20023;-70
2023/03/02 08:56:20;;;;;;;52.42;16.83;;;3.70;99.90;;;;;;4936243;29;20073;-76
2023/03/02 08:58:48;;;;;;;48.45;17.40;;;3.80;99.90;;;;;;4953408;29;20516;-71
2023/03/02 09:01:15;;;;;;;47.78;17.73;;;3.90;99.90;;;;;;4943168;29;20039;-73
2023/03/02 09:03:41;;;;;;;55.30;18.15;;;4.00;99.90;;;;;;4953244;29;20035;-70
2023/03/02 09:06:07;;;;;;;47.95;17.98;;;4.20;99.90;;;;;;4938912;29;20090;-74
2023/03/02 09:08:32;;;;;;;45.60;16.63;;;4.20;99.90;;;;;;4933629;29;20110;-70
2023/03/02 09:10:58;;;;;;;46.45;17.17;;;4.20;99.90;;;;;;4936261;29;20113;-70
2023/03/02 09:13:24;;;;;;;44.17;15.55;;;4.40;99.90;;;;;;4950279;29;20038;-70
2023/03/02 09:15:49;;;;;;;44.38;15.98;;;4.60;99.90;;;;;;4933792;29;20039;-70
2023/03/02 09:18:15;;;;;;;49.53;16.83;;;4.70;99.90;;;;;;4931363;29;20044;-71
2023/03/02 09:20:40;;;;;;;44.83;17.73;;;4.80;99.90;;;;;;4943797;29;20035;-72
2023/03/02 09:23:06;;;;;;;48.22;16.63;;;5.00;99.90;;;;;;4933376;29;20484;-75
2023/03/02 09:25:32;;;;;;;46.00;17.10;;;5.20;99.90;;;;;;4933105;29;20040;-72
2023/03/02 09:27:57;;;;;;;43.15;15.48;;;5.30;99.90;;;;;;4952117;29;20090;-71
2023/03/02 09:30:23;;;;;;;47.42;16.58;;;5.40;99.90;;;;;;4939653;29;20119;-71
2023/03/02 09:32:49;;;;;;;46.72;15.45;;;5.40;99.90;;;;;;4949958;29;20031;-71
2023/03/02 09:35:14;;;;;;;47.70;16.17;;;5.40;99.90;;;;;;4945168;29;20067;-68
2023/03/02 09:37:40;;;;;;;48.55;16.55;;;5.60;99.90;;;;;;4932678;29;20071;-72
2023/03/02 09:40:18;;;;;;;44.28;15.35;;;5.70;99.90;;;;;;4914883;29;20694;-74
2023/03/02 09:42:56;;;;;;;34.75;14.38;;;5.90;99.90;;;;;;4946200;29;20039;-72
2023/03/02 09:45:36;;;;;;;43.40;15.07;;;5.80;99.90;;;;;;4951754;29;20050;-70
2023/03/02 09:48:08;;;;;;;39.75;15.13;;;5.80;99.90;;;;;;4952563;29;20066;-69
2023/03/02 09:50:36;;;;;;;39.58;14.18;;;6.10;99.90;;;;;;4952434;29;20070;-69
2023/03/02 09:53:52;;;;;;;38.28;15.00;;;6.20;99.90;;;;;;4923652;29;20493;-69
2023/03/02 09:56:19;;;;;;;39.47;13.95;;;6.30;99.90;;;;;;4916686;29;20500;-70
2023/03/02 09:59:01;;;;;;;41.25;14.02;;;6.20;99.90;;;;;;4939466;29;20024;-70
2023/03/02 10:01:40;;;;;;;36.47;13.85;;;6.30;99.90;;;;;;4936664;29;20161;-70
2023/03/02 10:04:28;;;;;;;40.17;14.75;;;6.40;99.90;;;;;;4912149;29;20036;-72
2023/03/02 10:07:10;;;;;;;39.25;14.00;;;6.60;99.90;;;;;;4932456;29;20048;-71
2023/03/02 10:09:37;;;;;;;37.22;14.50;;;6.70;99.90;;;;;;4929190;29;20114;-72
2023/03/02 10:12:26;;;;;;;35.28;14.48;;;7.00;99.90;;;;;;4939652;29;20039;-71
2023/03/02 10:14:59;;;;;;;33.72;12.77;;;7.10;99.90;;;;;;4937802;29;20110;-70
2023/03/02 10:17:53;;;;;;;34.22;14.13;;;7.20;99.90;;;;;;4931018;29;20035;-70
2023/03/02 10:20:30;;;;;;;37.60;14.02;;;7.30;99.90;;;;;;4917554;29;20039;-69
2023/03/02 10:23:06;;;;;;;36.88;13.60;;;7.40;99.90;;;;;;4932508;29;20378;-66
2023/03/02 10:25:49;;;;;;;38.35;13.55;;;7.70;99.90;;;;;;4930945;29;20047;-71
2023/03/02 10:28:18;;;;;;;36.03;14.27;;;7.90;99.90;;;;;;4950077;29;20051;-69
2023/03/02 10:30:45;;;;;;;34.60;13.65;;;8.10;99.90;;;;;;4931750;29;20414;-69
2023/03/02 10:33:15;;;;;;;32.40;13.57;;;8.00;99.90;;;;;;4932954;29;20050;-70
2023/03/02 10:35:48;;;;;;;38.80;14.18;;;8.20;99.90;;;;;;4932268;29;20082;-70
2023/03/02 10:38:17;;;;;;;34.42;13.52;;;8.20;99.90;;;;;;4931730;29;20040;-72
2023/03/02 10:40:51;;;;;;;33.30;13.90;;;8.30;99.90;;;;;;4930971;29;20417;-71
2023/03/02 10:43:33;;;;;;;29.73;12.35;;;8.40;99.90;;;;;;4932055;29;20034;-71
2023/03/02 10:46:06;;;;;;;29.30;12.65;;;8.50;99.90;;;;;;4930966;29;20039;-69
2023/03/02 10:48:35;;;;;;;34.67;14.98;;;8.80;99.90;;;;;;4931517;29;20023;-69
2023/03/02 10:51:00;;;;;;;38.92;13.63;;;9.00;99.90;;;;;;4931992;29;20070;-72
2023/03/02 10:53:27;;;;;;;36.17;13.15;;;9.00;99.90;;;;;;4931944;29;20083;-71
2023/03/02 10:55:53;;;;;;;36.45;12.75;;;8.90;99.90;;;;;;4932137;29;20047;-71
2023/03/02 10:58:32;;;;;;;29.63;13.02;;;8.90;99.90;;;;;;4932191;29;20044;-71
2023/03/02 11:01:13;;;;;;;30.38;12.98;;;9.10;99.90;;;;;;4927869;29;20485;-70
2023/03/02 11:03:39;;;;;;;29.67;13.52;;;9.00;99.90;;;;;;4931232;29;20035;-69
2023/03/02 11:06:18;;;;;;;36.22;13.68;;;9.00;99.90;;;;;;4933145;29;20405;-71
2023/03/02 11:08:43;;;;;;;32.15;14.07;;;9.20;99.90;;;;;;4931888;29;20071;-72
2023/03/02 11:11:23;;;;;;;40.35;14.35;;;9.40;99.90;;;;;;4932083;29;20413;-72
2023/03/02 11:13:49;;;;;;;34.13;13.55;;;9.50;99.90;;;;;;4931534;29;20036;-71
2023/03/02 11:16:17;;;;;;;32.40;13.05;;;9.70;99.90;;;;;;4929934;29;20046;-73
2023/03/02 11:18:59;;;;;;;35.45;13.48;;;10.10;99.90;;;;;;4931644;29;20070;-71
2023/03/02 11:24:56;;;;;;;29.67;12.57;;;10.30;99.90;;;;;;4933135;29;20115;-70
2023/03/02 11:27:32;;;;;;;39.85;13.68;;;10.50;99.90;;;;;;4921925;29;20106;-69
2023/03/02 11:30:10;;;;;;;28.77;13.55;;;10.50;99.90;;;;;;4941802;29;20425;-70
2023/03/02 11:32:46;;;;;;;33.90;13.35;;;10.50;99.90;;;;;;4930692;29;20031;-70
2023/03/02 11:35:23;;;;;;;29.02;12.48;;;10.60;99.90;;;;;;4933294;29;20062;-69
2023/03/02 11:37:51;;;;;;;31.63;13.95;;;10.80;99.90;;;;;;4912251;29;20616;-71
2023/03/02 11:40:33;;;;;;;34.05;12.93;;;10.90;99.90;;;;;;4911728;29;20032;-74
2023/03/02 11:43:05;;;;;;;35.83;12.98;;;11.10;99.90;;;;;;4912264;29;20036;-70
2023/03/02 11:46:13;;;;;;;33.08;13.45;;;10.70;99.90;;;;;;4916005;29;20040;-70
2023/03/02 11:48:43;;;;;;;30.45;12.55;;;10.70;99.90;;;;;;4877973;29;20052;-70
2023/03/02 11:51:33;;;;;;;34.70;14.45;;;11.00;99.90;;;;;;4923612;29;20040;-68
2023/03/02 11:54:06;;;;;;;30.63;13.52;;;11.00;99.90;;;;;;4895033;29;20048;-70
2023/03/02 11:56:35;;;;;;;35.15;13.20;;;11.00;99.90;;;;;;4929735;29;20040;-71
2023/03/02 11:59:11;;;;;;;34.72;13.13;;;10.90;99.90;;;;;;4933069;29;20035;-69
2023/03/02 12:01:39;;;;;;;33.38;13.32;;;10.80;99.90;;;;;;4947996;29;20073;-69
2023/03/02 12:04:31;;;;;;;34.50;13.43;;;10.70;99.90;;;;;;4950127;29;20050;-70
2023/03/02 12:06:57;;;;;;;29.35;12.18;;;10.70;99.90;;;;;;4928492;29;20189;-67
2023/03/02 12:09:23;;;;;;;31.70;13.45;;;10.80;99.90;;;;;;4915728;29;20097;-70
2023/03/02 12:11:58;;;;;;;27.77;12.18;;;10.90;99.90;;;;;;4924442;29;20040;-66
2023/03/02 12:14:42;;;;;;;28.95;12.23;;;11.10;99.90;;;;;;4930179;29;20135;-68
2023/03/02 12:17:25;;;;;;;29.17;12.43;;;11.40;99.90;;;;;;4930852;29;20379;-70
2023/03/02 12:20:08;;;;;;;30.65;11.75;;;11.40;99.90;;;;;;4930763;29;20032;-70
2023/03/02 12:22:34;;;;;;;29.17;12.40;;;11.20;99.90;;;;;;4925240;29;20051;-71
2023/03/02 12:25:18;;;;;;;30.83;12.13;;;11.10;99.90;;;;;;4932663;29;20122;-71
2023/03/02 12:27:46;;;;;;;28.15;12.15;;;11.10;99.90;;;;;;4939051;29;20055;-70
2023/03/02 12:30:15;;;;;;;29.45;12.05;;;11.50;99.90;;;;;;4950107;29;20141;-69
2023/03/02 12:32:43;;;;;;;29.52;11.30;;;11.60;99.90;;;;;;4937317;29;20035;-70
2023/03/02 12:35:16;;;;;;;30.02;12.25;;;12.00;99.90;;;;;;4928618;29;20050;-70
2023/03/02 12:37:55;;;;;;;34.08;12.10;;;12.40;99.90;;;;;;4929436;29;20051;-70
2023/03/02 12:40:59;;;;;;;23.02;11.23;;;12.40;99.90;;;;;;4931664;29;20035;-71
2023/03/02 12:43:32;;;;;;;29.02;12.77;;;12.90;99.90;;;;;;4893132;29;20127;-72
2023/03/02 12:46:17;;;;;;;33.50;12.68;;;12.70;99.90;;;;;;4923452;29;20080;-72
2023/03/02 12:48:47;;;;;;;24.67;10.95;;;12.70;99.90;;;;;;4910675;29;20028;-71
2023/03/02 12:51:25;;;;;;;24.27;11.23;;;12.20;99.90;;;;;;4922055;29;20556;-72